sensor_id;sensor_type;location;lat;lon;timestamp;temperature;humidity
46652;DHT22;32377;52.182;5.398;2023-06-10T00:01:58;21.00;97.80
46652;DHT22;32377;52.182;5.398;2023-06-10T00:04:25;21.00;97.70
46652;DHT22;32377;52.182;5.398;2023-06-10T00:06:51;21.00;97.60
46652;DHT22;32377;52.182;5.398;2023-06-10T00:09:17;21.00;97.70
46652;DHT22;32377;52.182;5.398;2023-06-10T00:11:43;20.90;97.70
46652;DHT22;32377;52.182;5.398;2023-06-10T00:14:09;20.90;97.50
46652;DHT22;32377;52.182;5.398;2023-06-10T00:16:35;20.90;97.60
46652;DHT22;32377;52.182;5.398;2023-06-10T00:19:02;20.80;97.70
46652;DHT22;32377;52.182;5.398;2023-06-10T00:21:29;20.80;97.40
46652;DHT22;32377;52.182;5.398;2023-06-10T00:23:56;20.80;97.50
46652;DHT22;32377;52.182;5.398;2023-06-10T00:26:24;20.70;97.30
46652;DHT22;32377;52.182;5.398;2023-06-10T00:28:51;20.70;97.30
46652;DHT22;32377;52.182;5.398;2023-06-10T00:31:17;20.70;97.30
46652;DHT22;32377;52.182;5.398;2023-06-10T00:33:43;20.70;97.30
46652;DHT22;32377;52.182;5.398;2023-06-10T00:36:09;20.70;97.30
46652;DHT22;32377;52.182;5.398;2023-06-10T00:38:34;20.60;97.20
46652;DHT22;32377;52.182;5.398;2023-06-10T00:41:00;20.60;97.50
46652;DHT22;32377;52.182;5.398;2023-06-10T00:43:26;20.50;97.50
46652;DHT22;32377;52.182;5.398;2023-06-10T00:45:51;20.50;97.30
46652;DHT22;32377;52.182;5.398;2023-06-10T00:48:18;20.50;97.10
46652;DHT22;32377;52.182;5.398;2023-06-10T00:50:44;20.40;97.20
46652;DHT22;32377;52.182;5.398;2023-06-10T00:53:12;20.40;97.40
46652;DHT22;32377;52.182;5.398;2023-06-10T00:55:37;20.30;97.20
46652;DHT22;32377;52.182;5.398;2023-06-10T00:58:03;20.30;97.50
46652;DHT22;32377;52.182;5.398;2023-06-10T01:00:29;20.20;97.50
46652;DHT22;32377;52.182;5.398;2023-06-10T01:02:55;20.20;97.30
46652;DHT22;32377;52.182;5.398;2023-06-10T01:05:21;20.20;97.20
46652;DHT22;32377;52.182;5.398;2023-06-10T01:08:00;20.20;97.50
46652;DHT22;32377;52.182;5.398;2023-06-10T01:10:43;20.20;97.30
46652;DHT22;32377;52.182;5.398;2023-06-10T01:13:13;20.20;97.20
46652;DHT22;32377;52.182;5.398;2023-06-10T01:15:40;20.10;97.30
46652;DHT22;32377;52.182;5.398;2023-06-10T01:18:10;20.20;97.20
46652;DHT22;32377;52.182;5.398;2023-06-10T01:20:41;20.20;97.40
46652;DHT22;32377;52.182;5.398;2023-06-10T01:23:09;20.10;97.60
46652;DHT22;32377;52.182;5.398;2023-06-10T01:25:40;20.10;97.80
46652;DHT22;32377;52.182;5.398;2023-06-10T01:28:21;20.00;97.50
46652;DHT22;32377;52.182;5.398;2023-06-10T01:31:07;20.10;97.60
46652;DHT22;32377;52.182;5.398;2023-06-10T01:33:41;20.00;97.50
46652;DHT22;32377;52.182;5.398;2023-06-10T01:36:08;19.90;97.80
46652;DHT22;32377;52.182;5.398;2023-06-10T01:38:40;19.90;97.70
46652;DHT22;32377;52.182;5.398;2023-06-10T01:41:06;20.00;97.90
46652;DHT22;32377;52.182;5.398;2023-06-10T01:43:33;19.90;98.40
46652;DHT22;32377;52.182;5.398;2023-06-10T01:45:59;19.80;98.50
46652;DHT22;32377;52.182;5.398;2023-06-10T01:48:25;19.80;98.60
46652;DHT22;32377;52.182;5.398;2023-06-10T01:50:50;19.70;98.40
46652;DHT22;32377;52.182;5.398;2023-06-10T01:53:16;19.80;98.50
46652;DHT22;32377;52.182;5.398;2023-06-10T01:55:42;19.70;98.50
46652;DHT22;32377;52.182;5.398;2023-06-10T01:58:07;19.70;99.00
46652;DHT22;32377;52.182;5.398;2023-06-10T02:00:33;19.70;98.70
46652;DHT22;32377;52.182;5.398;2023-06-10T02:02:58;19.70;99.00
46652;DHT22;32377;52.182;5.398;2023-06-10T02:05:24;19.70;99.00
46652;DHT22;32377;52.182;5.398;2023-06-10T02:07:50;19.60;99.00
46652;DHT22;32377;52.182;5.398;2023-06-10T02:10:16;19.60;99.10
46652;DHT22;32377;52.182;5.398;2023-06-10T02:12:41;19.60;99.50
46652;DHT22;32377;52.182;5.398;2023-06-10T02:15:07;19.50;99.40
46652;DHT22;32377;52.182;5.398;2023-06-10T02:17:33;19.50;99.60
46652;DHT22;32377;52.182;5.398;2023-06-10T02:19:58;19.40;99.60
46652;DHT22;32377;52.182;5.398;2023-06-10T02:22:25;19.40;99.60
46652;DHT22;32377;52.182;5.398;2023-06-10T02:24:50;19.40;99.80
46652;DHT22;32377;52.182;5.398;2023-06-10T02:27:17;19.40;99.80
46652;DHT22;32377;52.182;5.398;2023-06-10T02:29:43;19.30;99.90
46652;DHT22;32377;52.182;5.398;2023-06-10T02:32:09;19.30;99.90
46652;DHT22;32377;52.182;5.398;2023-06-10T02:34:35;19.30;99.90
46652;DHT22;32377;52.182;5.398;2023-06-10T02:37:02;19.30;99.90
46652;DHT22;32377;52.182;5.398;2023-06-10T02:39:28;19.20;99.90
46652;DHT22;32377;52.182;5.398;2023-06-10T02:41:54;19.20;99.90
46652;DHT22;32377;52.182;5.398;2023-06-10T02:44:19;19.20;99.90
46652;DHT22;32377;52.182;5.398;2023-06-10T02:46:46;19.10;99.90
46652;DHT22;32377;52.182;5.398;2023-06-10T02:49:12;19.10;99.90
46652;DHT22;32377;52.182;5.398;2023-06-10T02:51:38;19.10;99.90
46652;DHT22;32377;52.182;5.398;2023-06-10T02:54:04;19.00;99.90
46652;DHT22;32377;52.182;5.398;2023-06-10T02:56:30;19.00;99.90
46652;DHT22;32377;52.182;5.398;2023-06-10T02:58:57;19.00;99.90
46652;DHT22;32377;52.182;5.398;2023-06-10T03:01:23;19.00;99.90
46652;DHT22;32377;52.182;5.398;2023-06-10T03:03:48;18.90;99.90
46652;DHT22;32377;52.182;5.398;2023-06-10T03:06:15;18.90;99.90
46652;DHT22;32377;52.182;5.398;2023-06-10T03:08:41;19.00;99.90
46652;DHT22;32377;52.182;5.398;2023-06-10T03:11:07;18.90;99.90
46652;DHT22;32377;52.182;5.398;2023-06-10T03:13:32;18.80;99.90
46652;DHT22;32377;52.182;5.398;2023-06-10T03:15:58;18.80;99.90
46652;DHT22;32377;52.182;5.398;2023-06-10T03:18:27;18.80;99.90
46652;DHT22;32377;52.182;5.398;2023-06-10T03:20:54;18.80;99.90
46652;DHT22;32377;52.182;5.398;2023-06-10T03:23:20;18.70;99.90
46652;DHT22;32377;52.182;5.398;2023-06-10T03:25:46;18.70;99.90
46652;DHT22;32377;52.182;5.398;2023-06-10T03:28:11;18.70;99.90
46652;DHT22;32377;52.182;5.398;2023-06-10T03:30:37;18.60;99.90
46652;DHT22;32377;52.182;5.398;2023-06-10T03:33:02;18.50;99.90
46652;DHT22;32377;52.182;5.398;2023-06-10T03:35:29;18.60;99.90
46652;DHT22;32377;52.182;5.398;2023-06-10T03:37:55;18.60;99.90
46652;DHT22;32377;52.182;5.398;2023-06-10T03:40:20;18.50;99.90
46652;DHT22;32377;52.182;5.398;2023-06-10T03:42:46;18.50;99.90
46652;DHT22;32377;52.182;5.398;2023-06-10T03:45:12;18.50;99.90
46652;DHT22;32377;52.182;5.398;2023-06-10T03:47:38;18.50;99.90
46652;DHT22;32377;52.182;5.398;2023-06-10T03:50:07;18.50;99.90
46652;DHT22;32377;52.182;5.398;2023-06-10T03:52:34;18.50;99.90
46652;DHT22;32377;52.182;5.398;2023-06-10T03:55:00;18.50;99.90
46652;DHT22;32377;52.182;5.398;2023-06-10T03:58:36;18.50;99.90
46652;DHT22;32377;52.182;5.398;2023-06-10T04:01:01;18.50;99.90
46652;DHT22;32377;52.182;5.398;2023-06-10T04:03:27;18.50;99.90
46652;DHT22;32377;52.182;5.398;2023-06-10T04:05:52;18.50;99.90
46652;DHT22;32377;52.182;5.398;2023-06-10T04:08:18;18.50;99.90
46652;DHT22;32377;52.182;5.398;2023-06-10T04:10:43;18.50;99.90
46652;DHT22;32377;52.182;5.398;2023-06-10T04:13:09;18.50;99.90
46652;DHT22;32377;52.182;5.398;2023-06-10T04:15:35;18.50;99.90
46652;DHT22;32377;52.182;5.398;2023-06-10T04:18:01;18.50;99.90
46652;DHT22;32377;52.182;5.398;2023-06-10T04:20:27;18.50;99.90
46652;DHT22;32377;52.182;5.398;2023-06-10T04:22:53;18.50;99.90
46652;DHT22;32377;52.182;5.398;2023-06-10T04:25:19;18.50;99.90
46652;DHT22;32377;52.182;5.398;2023-06-10T04:27:44;18.60;99.90
46652;DHT22;32377;52.182;5.398;2023-06-10T04:30:11;18.60;99.90
46652;DHT22;32377;52.182;5.398;2023-06-10T04:32:36;18.60;99.90
46652;DHT22;32377;52.182;5.398;2023-06-10T04:35:02;18.60;99.90
46652;DHT22;32377;52.182;5.398;2023-06-10T04:37:28;18.60;99.90
46652;DHT22;32377;52.182;5.398;2023-06-10T04:39:54;18.60;99.90
46652;DHT22;32377;52.182;5.398;2023-06-10T04:42:20;18.70;99.90
46652;DHT22;32377;52.182;5.398;2023-06-10T04:44:46;18.70;99.90
46652;DHT22;32377;52.182;5.398;2023-06-10T04:47:11;18.80;99.90
46652;DHT22;32377;52.182;5.398;2023-06-10T04:49:37;18.90;99.90
46652;DHT22;32377;52.182;5.398;2023-06-10T04:52:03;19.00;99.90
46652;DHT22;32377;52.182;5.398;2023-06-10T04:54:31;19.10;99.90
46652;DHT22;32377;52.182;5.398;2023-06-10T04:56:57;19.10;99.90
46652;DHT22;32377;52.182;5.398;2023-06-10T04:59:23;19.20;99.90
46652;DHT22;32377;52.182;5.398;2023-06-10T05:01:49;19.20;99.90
46652;DHT22;32377;52.182;5.398;2023-06-10T05:04:14;19.20;99.90
46652;DHT22;32377;52.182;5.398;2023-06-10T05:06:40;19.30;99.90
46652;DHT22;32377;52.182;5.398;2023-06-10T05:09:05;19.40;99.90
46652;DHT22;32377;52.182;5.398;2023-06-10T05:11:31;19.50;99.90
46652;DHT22;32377;52.182;5.398;2023-06-10T05:13:57;19.50;99.90
46652;DHT22;32377;52.182;5.398;2023-06-10T05:16:22;19.60;99.90
46652;DHT22;32377;52.182;5.398;2023-06-10T05:18:48;19.70;99.90
46652;DHT22;32377;52.182;5.398;2023-06-10T05:21:13;19.80;99.90
46652;DHT22;32377;52.182;5.398;2023-06-10T05:23:39;19.90;99.90
46652;DHT22;32377;52.182;5.398;2023-06-10T05:26:05;19.90;99.90
46652;DHT22;32377;52.182;5.398;2023-06-10T05:28:30;20.10;99.90
46652;DHT22;32377;52.182;5.398;2023-06-10T05:30:56;20.20;99.90
46652;DHT22;32377;52.182;5.398;2023-06-10T05:33:21;20.20;99.90
46652;DHT22;32377;52.182;5.398;2023-06-10T05:35:47;20.20;99.90
46652;DHT22;32377;52.182;5.398;2023-06-10T05:38:12;20.20;99.90
46652;DHT22;32377;52.182;5.398;2023-06-10T05:40:38;20.30;99.90
46652;DHT22;32377;52.182;5.398;2023-06-10T05:43:04;20.30;99.90
46652;DHT22;32377;52.182;5.398;2023-06-10T05:45:29;20.40;99.90
46652;DHT22;32377;52.182;5.398;2023-06-10T05:47:55;20.40;99.90
46652;DHT22;32377;52.182;5.398;2023-06-10T05:50:21;20.50;99.90
46652;DHT22;32377;52.182;5.398;2023-06-10T05:52:46;20.60;99.90
46652;DHT22;32377;52.182;5.398;2023-06-10T05:55:12;20.70;99.90
46652;DHT22;32377;52.182;5.398;2023-06-10T05:57:38;20.80;99.90
46652;DHT22;32377;52.182;5.398;2023-06-10T06:00:04;21.00;99.90
46652;DHT22;32377;52.182;5.398;2023-06-10T06:02:30;21.00;99.90
46652;DHT22;32377;52.182;5.398;2023-06-10T06:04:55;21.00;99.90
46652;DHT22;32377;52.182;5.398;2023-06-10T06:07:21;21.10;99.90
46652;DHT22;32377;52.182;5.398;2023-06-10T06:09:47;21.10;99.90
46652;DHT22;32377;52.182;5.398;2023-06-10T06:12:13;21.10;99.90
46652;DHT22;32377;52.182;5.398;2023-06-10T06:14:38;21.20;99.90
46652;DHT22;32377;52.182;5.398;2023-06-10T06:17:07;21.20;99.90
46652;DHT22;32377;52.182;5.398;2023-06-10T06:19:33;21.30;99.90
46652;DHT22;32377;52.182;5.398;2023-06-10T06:21:58;21.30;99.90
46652;DHT22;32377;52.182;5.398;2023-06-10T06:24:24;21.50;99.90
46652;DHT22;32377;52.182;5.398;2023-06-10T06:26:49;21.50;99.90
46652;DHT22;32377;52.182;5.398;2023-06-10T06:29:15;21.60;99.90
46652;DHT22;32377;52.182;5.398;2023-06-10T06:31:41;21.70;99.90
46652;DHT22;32377;52.182;5.398;2023-06-10T06:34:06;21.80;99.90
46652;DHT22;32377;52.182;5.398;2023-06-10T06:36:32;22.00;99.90
46652;DHT22;32377;52.182;5.398;2023-06-10T06:38:57;22.00;99.90
46652;DHT22;32377;52.182;5.398;2023-06-10T06:41:26;22.20;99.90
46652;DHT22;32377;52.182;5.398;2023-06-10T06:43:51;22.20;99.90
46652;DHT22;32377;52.182;5.398;2023-06-10T06:46:17;22.30;99.90
46652;DHT22;32377;52.182;5.398;2023-06-10T06:48:43;22.40;99.90
46652;DHT22;32377;52.182;5.398;2023-06-10T06:51:08;22.50;99.90
46652;DHT22;32377;52.182;5.398;2023-06-10T06:53:34;22.60;99.90
46652;DHT22;32377;52.182;5.398;2023-06-10T06:55:59;22.70;99.90
46652;DHT22;32377;52.182;5.398;2023-06-10T06:58:25;22.80;99.90
46652;DHT22;32377;52.182;5.398;2023-06-10T07:00:51;22.80;99.90
46652;DHT22;32377;52.182;5.398;2023-06-10T07:03:16;23.00;99.90
46652;DHT22;32377;52.182;5.398;2023-06-10T07:05:42;23.10;99.80
46652;DHT22;32377;52.182;5.398;2023-06-10T07:08:08;23.20;99.60
46652;DHT22;32377;52.182;5.398;2023-06-10T07:10:34;23.20;99.10
46652;DHT22;32377;52.182;5.398;2023-06-10T07:12:59;23.20;99.90
46652;DHT22;32377;52.182;5.398;2023-06-10T07:15:25;23.30;99.50
46652;DHT22;32377;52.182;5.398;2023-06-10T07:17:51;23.40;99.30
46652;DHT22;32377;52.182;5.398;2023-06-10T07:20:16;23.60;99.10
46652;DHT22;32377;52.182;5.398;2023-06-10T07:22:43;23.60;98.80
46652;DHT22;32377;52.182;5.398;2023-06-10T07:25:09;23.70;99.30
46652;DHT22;32377;52.182;5.398;2023-06-10T07:27:34;23.80;98.80
46652;DHT22;32377;52.182;5.398;2023-06-10T07:30:03;23.90;98.90
46652;DHT22;32377;52.182;5.398;2023-06-10T07:32:29;24.00;98.60
46652;DHT22;32377;52.182;5.398;2023-06-10T07:34:55;24.10;99.00
46652;DHT22;32377;52.182;5.398;2023-06-10T07:37:21;24.30;99.30
46652;DHT22;32377;52.182;5.398;2023-06-10T07:39:47;24.30;98.10
46652;DHT22;32377;52.182;5.398;2023-06-10T07:42:12;24.30;99.10
46652;DHT22;32377;52.182;5.398;2023-06-10T07:44:38;24.40;97.70
46652;DHT22;32377;52.182;5.398;2023-06-10T07:47:04;24.40;97.90
46652;DHT22;32377;52.182;5.398;2023-06-10T07:49:29;24.30;98.10
46652;DHT22;32377;52.182;5.398;2023-06-10T07:51:56;24.60;97.30
46652;DHT22;32377;52.182;5.398;2023-06-10T07:54:22;24.60;96.80
46652;DHT22;32377;52.182;5.398;2023-06-10T07:56:48;24.70;97.70
46652;DHT22;32377;52.182;5.398;2023-06-10T07:59:14;24.70;97.50
46652;DHT22;32377;52.182;5.398;2023-06-10T08:01:39;24.70;97.50
46652;DHT22;32377;52.182;5.398;2023-06-10T08:04:06;24.80;97.10
46652;DHT22;32377;52.182;5.398;2023-06-10T08:06:31;24.90;96.90
46652;DHT22;32377;52.182;5.398;2023-06-10T08:08:57;25.00;98.00
46652;DHT22;32377;52.182;5.398;2023-06-10T08:11:22;25.00;97.20
46652;DHT22;32377;52.182;5.398;2023-06-10T08:13:48;25.10;96.70
46652;DHT22;32377;52.182;5.398;2023-06-10T08:16:14;25.40;96.90
46652;DHT22;32377;52.182;5.398;2023-06-10T08:18:40;25.50;97.40
46652;DHT22;32377;52.182;5.398;2023-06-10T08:21:05;25.60;96.50
46652;DHT22;32377;52.182;5.398;2023-06-10T08:23:31;25.50;96.60
46652;DHT22;32377;52.182;5.398;2023-06-10T08:25:57;25.60;96.40
46652;DHT22;32377;52.182;5.398;2023-06-10T08:28:23;25.60;97.20
46652;DHT22;32377;52.182;5.398;2023-06-10T08:30:49;25.60;96.50
46652;DHT22;32377;52.182;5.398;2023-06-10T08:33:14;25.80;96.10
46652;DHT22;32377;52.182;5.398;2023-06-10T08:35:40;25.80;96.20
46652;DHT22;32377;52.182;5.398;2023-06-10T08:38:06;26.00;95.80
46652;DHT22;32377;52.182;5.398;2023-06-10T08:40:32;25.90;95.40
46652;DHT22;32377;52.182;5.398;2023-06-10T08:43:06;25.80;96.20
46652;DHT22;32377;52.182;5.398;2023-06-10T08:45:35;26.00;95.70
46652;DHT22;32377;52.182;5.398;2023-06-10T08:48:03;25.90;95.30
46652;DHT22;32377;52.182;5.398;2023-06-10T08:50:35;26.00;95.50
46652;DHT22;32377;52.182;5.398;2023-06-10T08:53:02;26.10;95.50
46652;DHT22;32377;52.182;5.398;2023-06-10T08:55:35;26.30;95.10
46652;DHT22;32377;52.182;5.398;2023-06-10T08:58:01;26.20;95.20
46652;DHT22;32377;52.182;5.398;2023-06-10T09:00:29;26.30;95.80
46652;DHT22;32377;52.182;5.398;2023-06-10T09:02:59;26.30;95.60
46652;DHT22;32377;52.182;5.398;2023-06-10T09:05:27;26.50;95.30
46652;DHT22;32377;52.182;5.398;2023-06-10T09:07:54;26.50;95.20
46652;DHT22;32377;52.182;5.398;2023-06-10T09:10:21;26.70;94.90
46652;DHT22;32377;52.182;5.398;2023-06-10T09:12:46;27.00;95.00
46652;DHT22;32377;52.182;5.398;2023-06-10T09:15:13;27.00;94.30
46652;DHT22;32377;52.182;5.398;2023-06-10T09:17:40;26.90;93.90
46652;DHT22;32377;52.182;5.398;2023-06-10T09:20:07;27.00;95.00
46652;DHT22;32377;52.182;5.398;2023-06-10T09:22:33;27.00;94.00
46652;DHT22;32377;52.182;5.398;2023-06-10T09:25:07;27.00;94.30
46652;DHT22;32377;52.182;5.398;2023-06-10T09:27:50;27.00;94.20
46652;DHT22;32377;52.182;5.398;2023-06-10T09:32:59;27.20;93.70
46652;DHT22;32377;52.182;5.398;2023-06-10T09:35:26;27.40;93.70
46652;DHT22;32377;52.182;5.398;2023-06-10T09:37:57;27.30;93.60
46652;DHT22;32377;52.182;5.398;2023-06-10T09:40:22;27.40;93.40
46652;DHT22;32377;52.182;5.398;2023-06-10T09:42:53;27.40;94.10
46652;DHT22;32377;52.182;5.398;2023-06-10T09:45:20;27.50;94.20
46652;DHT22;32377;52.182;5.398;2023-06-10T09:47:47;27.60;95.00
46652;DHT22;32377;52.182;5.398;2023-06-10T09:50:13;27.80;93.80
46652;DHT22;32377;52.182;5.398;2023-06-10T09:52:39;27.60;93.40
46652;DHT22;32377;52.182;5.398;2023-06-10T09:58:38;27.80;93.80
46652;DHT22;32377;52.182;5.398;2023-06-10T10:01:09;27.80;92.80
46652;DHT22;32377;52.182;5.398;2023-06-10T10:03:50;27.80;92.30
46652;DHT22;32377;52.182;5.398;2023-06-10T10:06:17;27.70;94.20
46652;DHT22;32377;52.182;5.398;2023-06-10T10:08:43;27.70;93.20
46652;DHT22;32377;52.182;5.398;2023-06-10T10:11:10;27.70;93.00
46652;DHT22;32377;52.182;5.398;2023-06-10T10:13:36;27.80;92.40
46652;DHT22;32377;52.182;5.398;2023-06-10T10:16:31;27.70;93.20
46652;DHT22;32377;52.182;5.398;2023-06-10T10:19:09;27.70;93.40
46652;DHT22;32377;52.182;5.398;2023-06-10T10:21:39;28.00;92.30
46652;DHT22;32377;52.182;5.398;2023-06-10T10:24:15;28.10;91.70
46652;DHT22;32377;52.182;5.398;2023-06-10T10:26:42;28.10;92.00
46652;DHT22;32377;52.182;5.398;2023-06-10T10:29:16;28.10;92.60
46652;DHT22;32377;52.182;5.398;2023-06-10T10:31:46;28.10;91.90
46652;DHT22;32377;52.182;5.398;2023-06-10T10:34:15;28.30;90.40
46652;DHT22;32377;52.182;5.398;2023-06-10T10:36:42;28.30;90.70
46652;DHT22;32377;52.182;5.398;2023-06-10T10:39:09;28.30;91.60
46652;DHT22;32377;52.182;5.398;2023-06-10T10:41:36;28.20;90.60
46652;DHT22;32377;52.182;5.398;2023-06-10T10:44:02;28.40;90.10
46652;DHT22;32377;52.182;5.398;2023-06-10T10:46:30;28.50;90.60
46652;DHT22;32377;52.182;5.398;2023-06-10T10:49:07;28.70;91.40
46652;DHT22;32377;52.182;5.398;2023-06-10T10:51:34;28.50;87.70
46652;DHT22;32377;52.182;5.398;2023-06-10T10:54:13;28.40;89.00
46652;DHT22;32377;52.182;5.398;2023-06-10T10:56:39;28.50;85.30
46652;DHT22;32377;52.182;5.398;2023-06-10T10:59:06;28.50;87.70
46652;DHT22;32377;52.182;5.398;2023-06-10T11:01:41;28.70;86.80
46652;DHT22;32377;52.182;5.398;2023-06-10T11:04:08;28.50;86.90
46652;DHT22;32377;52.182;5.398;2023-06-10T11:06:37;28.70;85.90
46652;DHT22;32377;52.182;5.398;2023-06-10T11:09:28;28.80;86.10
46652;DHT22;32377;52.182;5.398;2023-06-10T11:11:57;29.10;86.80
46652;DHT22;32377;52.182;5.398;2023-06-10T11:14:31;29.10;83.80
46652;DHT22;32377;52.182;5.398;2023-06-10T11:16:58;29.20;85.40
46652;DHT22;32377;52.182;5.398;2023-06-10T11:19:37;28.90;87.00
46652;DHT22;32377;52.182;5.398;2023-06-10T11:22:07;28.90;84.60
46652;DHT22;32377;52.182;5.398;2023-06-10T11:24:33;29.20;85.10
46652;DHT22;32377;52.182;5.398;2023-06-10T11:27:18;29.30;82.70
46652;DHT22;32377;52.182;5.398;2023-06-10T11:30:19;29.40;86.70
46652;DHT22;32377;52.182;5.398;2023-06-10T11:32:50;29.60;85.20
46652;DHT22;32377;52.182;5.398;2023-06-10T11:35:18;29.50;84.30
46652;DHT22;32377;52.182;5.398;2023-06-10T11:37:43;29.30;85.00
46652;DHT22;32377;52.182;5.398;2023-06-10T11:40:10;29.30;83.20
46652;DHT22;32377;52.182;5.398;2023-06-10T11:42:40;29.40;84.00
46652;DHT22;32377;52.182;5.398;2023-06-10T11:45:07;29.30;84.20
46652;DHT22;32377;52.182;5.398;2023-06-10T11:47:34;29.20;85.40
46652;DHT22;32377;52.182;5.398;2023-06-10T11:49:59;29.30;88.00
46652;DHT22;32377;52.182;5.398;2023-06-10T11:52:31;29.30;84.20
46652;DHT22;32377;52.182;5.398;2023-06-10T11:55:05;29.20;82.90
46652;DHT22;32377;52.182;5.398;2023-06-10T11:57:34;29.20;85.00
46652;DHT22;32377;52.182;5.398;2023-06-10T12:00:07;29.30;84.00
46652;DHT22;32377;52.182;5.398;2023-06-10T12:02:33;29.40;83.80
46652;DHT22;32377;52.182;5.398;2023-06-10T12:05:11;29.50;84.00
46652;DHT22;32377;52.182;5.398;2023-06-10T12:07:36;29.50;83.10
46652;DHT22;32377;52.182;5.398;2023-06-10T12:10:02;29.50;83.60
46652;DHT22;32377;52.182;5.398;2023-06-10T12:54:34;30.10;80.60
46652;DHT22;32377;52.182;5.398;2023-06-10T12:57:00;29.90;81.10
46652;DHT22;32377;52.182;5.398;2023-06-10T12:59:26;29.90;82.70
46652;DHT22;32377;52.182;5.398;2023-06-10T13:01:53;29.80;83.80
46652;DHT22;32377;52.182;5.398;2023-06-10T13:04:20;29.80;80.70
46652;DHT22;32377;52.182;5.398;2023-06-10T13:06:47;29.70;82.00
46652;DHT22;32377;52.182;5.398;2023-06-10T13:09:15;29.80;82.50
46652;DHT22;32377;52.182;5.398;2023-06-10T13:11:42;29.90;81.80
46652;DHT22;32377;52.182;5.398;2023-06-10T13:14:08;29.90;83.00
46652;DHT22;32377;52.182;5.398;2023-06-10T13:16:35;29.90;81.90
46652;DHT22;32377;52.182;5.398;2023-06-10T13:19:03;29.90;82.50
46652;DHT22;32377;52.182;5.398;2023-06-10T13:21:31;30.00;82.90
46652;DHT22;32377;52.182;5.398;2023-06-10T13:23:57;30.10;80.70
46652;DHT22;32377;52.182;5.398;2023-06-10T13:26:22;30.00;80.60
46652;DHT22;32377;52.182;5.398;2023-06-10T13:28:48;30.00;82.40
46652;DHT22;32377;52.182;5.398;2023-06-10T13:31:14;30.10;80.80
46652;DHT22;32377;52.182;5.398;2023-06-10T13:33:39;30.20;80.50
46652;DHT22;32377;52.182;5.398;2023-06-10T13:36:05;30.20;81.40
46652;DHT22;32377;52.182;5.398;2023-06-10T13:38:31;30.10;80.30
46652;DHT22;32377;52.182;5.398;2023-06-10T13:40:57;30.00;80.20
46652;DHT22;32377;52.182;5.398;2023-06-10T13:43:23;30.10;82.60
46652;DHT22;32377;52.182;5.398;2023-06-10T13:45:48;30.20;81.80
46652;DHT22;32377;52.182;5.398;2023-06-10T13:48:14;30.20;79.30
46652;DHT22;32377;52.182;5.398;2023-06-10T13:50:39;30.10;81.50
46652;DHT22;32377;52.182;5.398;2023-06-10T13:53:05;30.00;79.20
46652;DHT22;32377;52.182;5.398;2023-06-10T13:55:31;30.00;78.70
46652;DHT22;32377;52.182;5.398;2023-06-10T13:57:56;30.00;80.70
46652;DHT22;32377;52.182;5.398;2023-06-10T14:00:22;30.10;81.40
46652;DHT22;32377;52.182;5.398;2023-06-10T14:02:48;30.10;80.40
46652;DHT22;32377;52.182;5.398;2023-06-10T14:05:14;30.20;81.10
46652;DHT22;32377;52.182;5.398;2023-06-10T14:07:39;30.20;80.40
46652;DHT22;32377;52.182;5.398;2023-06-10T14:10:06;30.20;80.20
46652;DHT22;32377;52.182;5.398;2023-06-10T14:12:34;30.00;82.20
46652;DHT22;32377;52.182;5.398;2023-06-10T14:14:59;30.10;80.20
46652;DHT22;32377;52.182;5.398;2023-06-10T14:17:25;29.90;79.70
46652;DHT22;32377;52.182;5.398;2023-06-10T14:19:50;30.00;80.40
46652;DHT22;32377;52.182;5.398;2023-06-10T14:22:16;30.00;79.40
46652;DHT22;32377;52.182;5.398;2023-06-10T14:24:42;30.00;80.50
46652;DHT22;32377;52.182;5.398;2023-06-10T14:27:07;29.90;78.60
46652;DHT22;32377;52.182;5.398;2023-06-10T14:29:33;30.00;82.60
46652;DHT22;32377;52.182;5.398;2023-06-10T14:31:59;29.90;81.20
46652;DHT22;32377;52.182;5.398;2023-06-10T14:34:25;29.70;82.00
46652;DHT22;32377;52.182;5.398;2023-06-10T14:36:54;29.90;81.40
46652;DHT22;32377;52.182;5.398;2023-06-10T14:39:20;29.80;80.90
46652;DHT22;32377;52.182;5.398;2023-06-10T14:41:46;29.80;80.20
46652;DHT22;32377;52.182;5.398;2023-06-10T14:44:11;29.80;81.10
46652;DHT22;32377;52.182;5.398;2023-06-10T14:46:37;29.80;80.10
46652;DHT22;32377;52.182;5.398;2023-06-10T14:49:03;30.00;81.10
46652;DHT22;32377;52.182;5.398;2023-06-10T14:51:28;30.00;82.60
46652;DHT22;32377;52.182;5.398;2023-06-10T14:53:54;30.00;79.20
46652;DHT22;32377;52.182;5.398;2023-06-10T14:56:19;29.90;79.80
46652;DHT22;32377;52.182;5.398;2023-06-10T14:58:45;29.90;79.60
46652;DHT22;32377;52.182;5.398;2023-06-10T15:01:11;29.80;78.40
46652;DHT22;32377;52.182;5.398;2023-06-10T15:03:36;29.60;77.60
46652;DHT22;32377;52.182;5.398;2023-06-10T15:06:02;29.60;80.10
46652;DHT22;32377;52.182;5.398;2023-06-10T15:08:28;29.70;79.10
46652;DHT22;32377;52.182;5.398;2023-06-10T15:10:54;29.90;78.00
46652;DHT22;32377;52.182;5.398;2023-06-10T15:13:20;29.70;78.60
46652;DHT22;32377;52.182;5.398;2023-06-10T15:15:45;29.70;81.70
46652;DHT22;32377;52.182;5.398;2023-06-10T15:18:11;29.60;79.30
46652;DHT22;32377;52.182;5.398;2023-06-10T15:20:37;29.60;78.60
46652;DHT22;32377;52.182;5.398;2023-06-10T15:23:02;29.70;80.70
46652;DHT22;32377;52.182;5.398;2023-06-10T15:25:28;29.80;81.80
46652;DHT22;32377;52.182;5.398;2023-06-10T15:27:54;29.70;80.90
46652;DHT22;32377;52.182;5.398;2023-06-10T15:30:20;29.80;80.40
46652;DHT22;32377;52.182;5.398;2023-06-10T15:32:45;29.80;80.10
46652;DHT22;32377;52.182;5.398;2023-06-10T15:35:11;29.80;79.40
46652;DHT22;32377;52.182;5.398;2023-06-10T15:37:37;29.90;81.20
46652;DHT22;32377;52.182;5.398;2023-06-10T15:40:03;29.70;79.10
46652;DHT22;32377;52.182;5.398;2023-06-10T15:42:28;29.60;78.60
46652;DHT22;32377;52.182;5.398;2023-06-10T15:44:54;29.60;78.00
46652;DHT22;32377;52.182;5.398;2023-06-10T15:47:20;29.60;78.70
46652;DHT22;32377;52.182;5.398;2023-06-10T15:49:46;29.60;79.60
46652;DHT22;32377;52.182;5.398;2023-06-10T15:52:11;29.70;80.00
46652;DHT22;32377;52.182;5.398;2023-06-10T15:54:37;29.50;79.00
46652;DHT22;32377;52.182;5.398;2023-06-10T15:58:41;29.50;77.70
46652;DHT22;32377;52.182;5.398;2023-06-10T16:01:06;29.60;79.20
46652;DHT22;32377;52.182;5.398;2023-06-10T16:03:34;29.70;78.80
46652;DHT22;32377;52.182;5.398;2023-06-10T16:06:00;29.60;79.00
46652;DHT22;32377;52.182;5.398;2023-06-10T16:08:26;29.60;77.80
46652;DHT22;32377;52.182;5.398;2023-06-10T16:10:51;29.60;77.20
46652;DHT22;32377;52.182;5.398;2023-06-10T16:13:17;29.60;78.30
46652;DHT22;32377;52.182;5.398;2023-06-10T16:15:42;29.50;78.10
46652;DHT22;32377;52.182;5.398;2023-06-10T16:18:08;29.50;78.30
46652;DHT22;32377;52.182;5.398;2023-06-10T16:20:34;29.50;77.40